Time;durP1;ratioP1;P1;durP2;ratioP2;P2;SDS_P1;SDS_P2;PMS_P1;PMS_P2;Temp;Humidity;BMP_temperature;BMP_pressure;BME280_temperature;BME280_humidity;BME280_pressure;Samples;Min_cycle;Max_cycle;Signal;HPM_P1;HPM_P2
2022/06/29 00:00:51;;;;;;;1.48;0.57;;;24.50;49.00;23.60;101348.00;;;;5062331;28;20048;-66
2022/06/29 00:03:37;;;;;;;0.60;0.60;;;24.50;49.00;23.60;101342.00;;;;5049054;28;20044;-66
2022/06/29 00:06:23;;;;;;;1.38;0.80;;;24.50;49.10;23.60;101344.00;;;;5068760;28;20040;-66
2022/06/29 00:09:09;;;;;;;3.05;0.60;;;24.40;48.90;23.60;101347.00;;;;5070096;28;20055;-66
2022/06/29 00:11:55;;;;;;;0.57;0.57;;;24.50;48.90;23.60;101336.00;;;;5067332;28;20045;-66
2022/06/29 00:14:41;;;;;;;0.95;0.63;;;24.50;49.10;23.60;101337.00;;;;5060517;28;20106;-66
2022/06/29 00:17:28;;;;;;;0.50;0.50;;;24.40;48.90;23.50;101343.00;;;;5049420;28;20447;-66
2022/06/29 00:20:14;;;;;;;0.75;0.50;;;24.50;49.10;23.50;101343.00;;;;5047881;28;20044;-66
2022/06/29 00:23:00;;;;;;;1.48;0.60;;;24.50;49.10;23.50;101344.00;;;;5047878;28;20044;-66
2022/06/29 00:25:46;;;;;;;2.08;0.70;;;24.50;49.10;23.50;101335.00;;;;5065737;28;20127;-66
2022/06/29 00:28:32;;;;;;;0.50;0.50;;;24.50;49.10;23.50;101344.00;;;;5065758;28;20102;-66
2022/06/29 00:31:18;;;;;;;0.73;0.68;;;24.40;49.00;23.50;101341.00;;;;5065846;28;20470;-66
2022/06/29 00:34:04;;;;;;;1.20;0.75;;;24.40;49.10;23.50;101338.00;;;;5068082;28;20094;-67
2022/06/29 00:36:50;;;;;;;1.08;0.80;;;24.30;49.00;23.50;101328.00;;;;5058329;28;20056;-66
2022/06/29 00:39:37;;;;;;;1.63;0.80;;;24.40;49.00;23.50;101324.00;;;;5062217;28;20044;-66
2022/06/29 00:42:23;;;;;;;0.50;0.50;;;24.40;49.10;23.50;101326.00;;;;5056561;28;20076;-66
2022/06/29 00:45:09;;;;;;;1.42;0.63;;;24.50;49.10;23.50;101329.00;;;;5065133;28;20040;-66
2022/06/29 00:47:55;;;;;;;1.05;0.60;;;24.40;49.10;23.50;101330.00;;;;5065032;28;20048;-66
2022/06/29 00:50:41;;;;;;;0.60;0.60;;;24.40;49.10;23.50;101314.00;;;;5067184;28;20174;-66
2022/06/29 00:53:27;;;;;;;0.73;0.65;;;24.40;49.10;23.50;101324.00;;;;5062501;28;20033;-66
2022/06/29 00:56:13;;;;;;;2.10;0.50;;;24.40;49.10;23.50;101321.00;;;;5047318;28;20052;-66
2022/06/29 00:58:59;;;;;;;1.35;0.60;;;24.40;49.10;23.50;101323.00;;;;5059264;28;20105;-66
2022/06/29 01:01:45;;;;;;;0.93;0.50;;;24.40;49.10;23.50;101321.00;;;;5053992;28;20089;-66
2022/06/29 01:04:31;;;;;;;1.48;0.88;;;24.40;49.20;23.50;101316.00;;;;5048658;28;20044;-66
2022/06/29 01:07:20;;;;;;;0.55;0.50;;;24.40;49.10;23.50;101311.00;;;;5067755;28;20041;-66
2022/06/29 01:10:07;;;;;;;1.05;0.70;;;24.40;49.20;23.50;101312.00;;;;5049463;28;20110;-66
2022/06/29 01:12:53;;;;;;;1.35;0.60;;;24.40;49.10;23.50;101311.00;;;;5064921;28;20075;-66
2022/06/29 01:15:40;;;;;;;0.68;0.60;;;24.30;49.00;23.50;101314.00;;;;5066563;28;20036;-66
2022/06/29 01:18:26;;;;;;;0.73;0.70;;;24.30;49.10;23.50;101306.00;;;;5059573;28;20036;-66
2022/06/29 01:21:12;;;;;;;0.50;0.50;;;24.40;49.10;23.40;101312.00;;;;5059133;28;20044;-66
2022/06/29 01:23:58;;;;;;;3.40;0.57;;;24.30;49.00;23.40;101312.00;;;;5047693;28;20379;-66
2022/06/29 01:26:44;;;;;;;1.40;0.57;;;24.40;49.10;23.40;101306.00;;;;5068301;28;20497;-66
2022/06/29 01:29:31;;;;;;;0.60;0.60;;;24.30;49.00;23.40;101301.00;;;;5067827;28;20470;-66
2022/06/29 01:32:17;;;;;;;1.20;0.60;;;24.30;49.20;23.40;101306.00;;;;5065595;28;20510;-66
2022/06/29 01:35:03;;;;;;;1.10;0.68;;;24.30;49.00;23.40;101297.00;;;;5067256;28;20044;-66
2022/06/29 01:37:49;;;;;;;1.23;0.65;;;24.30;49.00;23.40;101298.00;;;;5062011;28;20044;-66
2022/06/29 01:40:37;;;;;;;0.80;0.65;;;24.30;49.00;23.40;101294.00;;;;5050699;28;20124;-66
2022/06/29 01:43:23;;;;;;;0.60;0.60;;;24.30;49.00;23.40;101294.00;;;;5060479;28;20373;-66
2022/06/29 01:46:09;;;;;;;2.03;0.80;;;24.30;49.00;23.40;101286.00;;;;5063078;28;20037;-66
2022/06/29 01:48:55;;;;;;;1.15;0.57;;;24.20;48.90;23.40;101270.00;;;;5067224;28;20044;-66
2022/06/29 01:51:41;;;;;;;1.23;0.70;;;24.30;49.00;23.40;101269.00;;;;5062643;28;20105;-66
2022/06/29 01:54:27;;;;;;;0.75;0.50;;;24.30;49.10;23.40;101278.00;;;;5065927;28;20043;-66
2022/06/29 01:57:14;;;;;;;1.48;0.63;;;24.20;49.00;23.40;101275.00;;;;5066585;28;20291;-66
2022/06/29 02:00:00;;;;;;;0.98;0.60;;;24.20;49.10;23.40;101271.00;;;;5066861;28;20489;-66
2022/06/29 02:02:46;;;;;;;1.58;0.57;;;24.20;49.10;23.40;101270.00;;;;5062646;28;20089;-66
2022/06/29 02:05:32;;;;;;;1.08;0.90;;;24.20;49.10;23.40;101262.00;;;;5065736;28;20553;-66
2022/06/29 02:08:18;;;;;;;1.00;0.70;;;24.20;49.20;23.30;101257.00;;;;5050644;28;20036;-66
2022/06/29 02:11:04;;;;;;;1.65;0.95;;;24.20;48.90;23.30;101260.00;;;;5064663;28;20041;-66
2022/06/29 02:13:51;;;;;;;0.60;0.60;;;24.20;49.10;23.30;101261.00;;;;5064495;28;20279;-66
2022/06/29 02:16:37;;;;;;;1.13;0.70;;;24.20;49.00;23.30;101250.00;;;;5038375;28;20471;-66
2022/06/29 02:19:23;;;;;;;1.58;0.70;;;24.20;48.90;23.30;101250.00;;;;5068010;28;20079;-66
2022/06/29 02:22:09;;;;;;;2.83;0.70;;;24.20;49.10;23.30;101252.00;;;;5065500;28;20375;-67
2022/06/29 02:24:55;;;;;;;0.77;0.60;;;24.20;49.20;23.30;101240.00;;;;5063991;28;20045;-66
2022/06/29 02:27:42;;;;;;;0.55;0.55;;;24.20;49.10;23.30;101237.00;;;;5045903;28;20033;-66
2022/06/29 02:36:37;;;;;;;1.80;0.80;;;24.20;49.00;23.30;101231.00;;;;5054759;28;20062;-66
2022/06/29 02:39:23;;;;;;;1.13;0.77;;;24.10;49.00;23.30;101234.00;;;;5065431;28;20063;-66
2022/06/29 02:42:10;;;;;;;1.63;0.90;;;24.10;49.00;23.30;101230.00;;;;5063883;28;20048;-66
2022/06/29 02:44:56;;;;;;;1.02;0.75;;;24.10;49.10;23.20;101227.00;;;;5047664;28;20115;-66
2022/06/29 02:47:42;;;;;;;1.45;0.80;;;24.10;49.00;23.20;101233.00;;;;5064998;28;20082;-66
2022/06/29 02:50:28;;;;;;;0.80;0.80;;;24.10;49.00;23.30;101238.00;;;;5064319;28;20488;-67
2022/06/29 02:53:14;;;;;;;1.55;0.65;;;24.10;49.00;23.20;101232.00;;;;5046961;28;20037;-66
2022/06/29 02:56:00;;;;;;;2.08;0.80;;;24.10;49.10;23.20;101236.00;;;;5062006;28;20040;-66
2022/06/29 02:58:47;;;;;;;2.42;0.90;;;24.10;49.10;23.20;101238.00;;;;5064528;28;20380;-66
2022/06/29 03:01:33;;;;;;;1.25;0.60;;;24.00;48.90;23.20;101245.00;;;;5060965;28;20051;-66
2022/06/29 03:04:19;;;;;;;3.00;0.90;;;24.10;49.10;23.20;101242.00;;;;5065201;28;20040;-66
2022/06/29 03:07:05;;;;;;;1.02;0.80;;;24.00;48.90;23.20;101240.00;;;;5064522;28;20488;-66
2022/06/29 03:09:51;;;;;;;1.02;0.80;;;24.00;48.80;23.20;101241.00;;;;5048038;28;20048;-66
2022/06/29 03:12:37;;;;;;;1.92;0.68;;;24.10;48.90;23.20;101237.00;;;;5068623;28;20041;-66
2022/06/29 03:15:25;;;;;;;1.88;0.70;;;24.00;49.00;23.20;101227.00;;;;5066421;28;20067;-66
2022/06/29 03:18:11;;;;;;;0.80;0.70;;;24.00;49.00;23.20;101231.00;;;;5061860;28;20474;-66
2022/06/29 03:20:57;;;;;;;1.70;0.80;;;24.00;49.00;23.20;101221.00;;;;5050370;28;20048;-66
2022/06/29 03:23:44;;;;;;;1.63;0.93;;;24.00;49.00;23.20;101220.00;;;;5062225;28;20090;-66
2022/06/29 03:26:30;;;;;;;0.60;0.60;;;24.00;49.00;23.20;101218.00;;;;5060577;28;20056;-66
2022/06/29 03:29:17;;;;;;;1.00;0.82;;;24.00;49.00;23.10;101224.00;;;;5051850;28;20064;-66
2022/06/29 03:32:03;;;;;;;0.80;0.52;;;24.00;49.00;23.20;101218.00;;;;5062867;28;20058;-66
2022/06/29 03:34:49;;;;;;;1.25;0.77;;;24.00;49.10;23.20;101207.00;;;;5062151;28;20048;-66
2022/06/29 03:37:35;;;;;;;3.28;0.77;;;24.00;49.00;23.20;101211.00;;;;5059034;28;20470;-66
2022/06/29 03:40:21;;;;;;;1.92;0.73;;;24.00;49.00;23.20;101212.00;;;;5066127;28;20040;-66
2022/06/29 03:43:07;;;;;;;1.23;0.73;;;24.00;48.90;23.20;101209.00;;;;5066615;28;20143;-66
2022/06/29 03:45:53;;;;;;;2.15;0.85;;;24.00;49.00;23.10;101206.00;;;;5064516;28;20249;-66
2022/06/29 03:48:39;;;;;;;1.42;0.80;;;23.90;48.90;23.10;101203.00;;;;5066154;28;20425;-66
2022/06/29 03:51:26;;;;;;;2.58;0.80;;;24.00;48.80;23.10;101205.00;;;;5037850;28;20033;-66
2022/06/29 03:54:12;;;;;;;0.73;0.65;;;24.00;48.90;23.10;101203.00;;;;5049288;28;20036;-66
2022/06/29 03:56:58;;;;;;;2.55;0.80;;;24.00;49.00;23.10;101206.00;;;;5061020;28;20502;-66
2022/06/29 03:59:44;;;;;;;0.77;0.75;;;24.00;48.80;23.10;101205.00;;;;5045809;28;20041;-66
2022/06/29 04:02:30;;;;;;;3.53;0.70;;;24.00;49.00;23.10;101199.00;;;;5060710;28;20044;-66
2022/06/29 04:05:16;;;;;;;3.28;1.20;;;24.00;48.90;23.10;101201.00;;;;5061429;28;20033;-66
2022/06/29 04:08:02;;;;;;;1.25;0.80;;;24.00;48.80;23.10;101201.00;;;;5065198;28;20634;-66
2022/06/29 04:10:48;;;;;;;2.05;0.77;;;24.00;48.90;23.10;101202.00;;;;5060330;28;20467;-66
2022/06/29 04:13:34;;;;;;;0.70;0.70;;;23.90;49.00;23.10;101205.00;;;;5063287;28;20105;-66
2022/06/29 04:16:20;;;;;;;2.42;0.80;;;23.90;49.00;23.10;101197.00;;;;5058017;28;20036;-66
2022/06/29 04:19:06;;;;;;;1.98;0.75;;;23.90;48.80;23.10;101192.00;;;;5044904;28;21062;-66
2022/06/29 04:21:53;;;;;;;1.88;1.02;;;23.90;49.00;23.10;101190.00;;;;5054768;28;20059;-66
2022/06/29 04:24:39;;;;;;;1.80;0.90;;;24.00;48.80;23.10;101191.00;;;;5045544;28;20041;-66
2022/06/29 04:27:25;;;;;;;1.40;0.80;;;24.00;48.90;23.10;101191.00;;;;5065867;28;20040;-66
2022/06/29 04:30:12;;;;;;;0.90;0.75;;;23.90;48.80;23.10;101185.00;;;;5050158;28;20040;-66
2022/06/29 04:32:58;;;;;;;;;;;24.00;49.00;23.10;101192.00;;;;5066635;28;20052;-66
2022/06/29 04:35:44;;;;;;;2.50;1.10;;;24.00;49.10;23.10;101189.00;;;;5066729;28;19920;-66
2022/06/29 04:38:30;;;;;;;1.88;0.82;;;24.00;48.80;23.10;101180.00;;;;5067343;28;20040;-66
2022/06/29 04:41:17;;;;;;;1.42;0.70;;;23.90;48.90;23.10;101179.00;;;;5066814;28;20089;-66
2022/06/29 04:44:03;;;;;;;1.70;0.77;;;23.90;48.80;23.10;101176.00;;;;5068532;28;20036;-66
2022/06/29 04:46:49;;;;;;;0.70;0.70;;;23.90;48.90;23.10;101182.00;;;;5064708;28;20040;-66
2022/06/29 04:49:35;;;;;;;1.48;1.25;;;23.90;48.90;23.10;101185.00;;;;5049625;28;20033;-66
2022/06/29 04:52:21;;;;;;;0.73;0.70;;;24.00;49.10;23.10;101175.00;;;;5063740;28;20478;-66
2022/06/29 04:55:08;;;;;;;1.35;0.75;;;23.90;49.00;23.10;101172.00;;;;5067890;28;20037;-66
2022/06/29 04:57:54;;;;;;;1.20;0.82;;;23.90;49.10;23.10;101170.00;;;;5060286;28;20069;-66
2022/06/29 05:00:40;;;;;;;1.48;1.20;;;24.00;49.10;23.10;101176.00;;;;5063030;28;20335;-66
2022/06/29 05:03:26;;;;;;;3.60;0.80;;;23.90;49.10;23.10;101172.00;;;;5064337;28;20094;-66
2022/06/29 05:06:12;;;;;;;1.15;0.77;;;23.90;49.10;23.10;101171.00;;;;5057253;28;20043;-66
2022/06/29 05:08:58;;;;;;;0.95;0.60;;;23.90;49.20;23.10;101172.00;;;;5053297;28;21928;-66
2022/06/29 05:11:44;;;;;;;2.28;0.80;;;23.90;49.10;23.10;101171.00;;;;5064736;28;20426;-66
2022/06/29 05:14:30;;;;;;;3.03;0.90;;;23.90;49.10;23.10;101162.00;;;;5062682;28;20036;-66
2022/06/29 05:17:17;;;;;;;1.33;0.88;;;23.90;49.10;23.10;101170.00;;;;5054856;28;20044;-66
2022/06/29 05:20:04;;;;;;;1.20;0.90;;;24.00;49.10;23.10;101166.00;;;;5061966;28;20409;-66
2022/06/29 05:22:52;;;;;;;2.53;1.83;;;23.90;49.10;23.10;101162.00;;;;5051021;28;20127;-66
2022/06/29 05:25:39;;;;;;;1.48;0.82;;;24.00;49.20;23.10;101158.00;;;;5061999;28;20135;-66
2022/06/29 05:28:25;;;;;;;1.77;1.00;;;24.00;49.20;23.10;101151.00;;;;5065634;28;20040;-66
2022/06/29 05:31:11;;;;;;;3.85;0.85;;;24.00;49.10;23.10;101152.00;;;;5054133;28;20032;-66
2022/06/29 05:33:57;;;;;;;1.30;0.93;;;24.00;49.10;23.10;101154.00;;;;5066060;28;20437;-66
2022/06/29 05:36:43;;;;;;;1.00;0.80;;;24.00;49.10;23.10;101151.00;;;;5068114;28;20052;-66
2022/06/29 05:39:29;;;;;;;2.38;0.70;;;24.00;49.10;23.10;101155.00;;;;5064307;28;20361;-66
2022/06/29 05:42:15;;;;;;;0.80;0.80;;;24.00;49.10;23.10;101154.00;;;;5065466;28;20109;-66
2022/06/29 05:45:01;;;;;;;1.75;1.00;;;24.10;49.20;23.10;101151.00;;;;5061169;28;20052;-66
2022/06/29 05:47:47;;;;;;;1.15;0.90;;;24.00;49.20;23.10;101146.00;;;;5064042;28;20397;-66
2022/06/29 05:50:33;;;;;;;1.95;0.90;;;24.00;49.10;23.10;101151.00;;;;5066254;28;20122;-66
2022/06/29 05:53:19;;;;;;;1.30;0.73;;;24.00;49.10;23.20;101145.00;;;;5065218;28;20496;-66
2022/06/29 05:56:06;;;;;;;1.17;0.70;;;24.10;49.10;23.20;101147.00;;;;5055388;28;20044;-66
2022/06/29 05:58:52;;;;;;;2.67;0.90;;;24.00;49.10;23.20;101143.00;;;;5062645;28;20072;-66
2022/06/29 06:01:38;;;;;;;4.90;1.00;;;24.10;49.00;23.20;101145.00;;;;5064425;28;20032;-66
2022/06/29 06:04:25;;;;;;;0.75;0.68;;;24.10;49.00;23.20;101145.00;;;;5045215;28;20424;-66
2022/06/29 06:07:11;;;;;;;2.13;0.90;;;24.20;49.00;23.20;101148.00;;;;5067060;28;20052;-66
2022/06/29 06:09:57;;;;;;;2.47;1.10;;;24.10;49.70;23.20;101143.00;;;;5062811;28;20041;-66
2022/06/29 06:12:43;;;;;;;2.22;0.90;;;24.10;49.00;23.20;101148.00;;;;5065027;28;20413;-66
2022/06/29 06:15:30;;;;;;;1.48;0.82;;;24.20;49.10;23.20;101152.00;;;;5063453;28;20032;-66
2022/06/29 06:18:16;;;;;;;1.60;0.77;;;24.20;49.20;23.20;101154.00;;;;5060734;28;20410;-66
2022/06/29 06:21:02;;;;;;;1.30;1.00;;;24.20;48.90;23.20;101156.00;;;;5057962;28;20052;-66
2022/06/29 06:23:48;;;;;;;1.63;0.90;;;24.20;48.90;23.20;101148.00;;;;5065410;28;20036;-66
2022/06/29 06:26:35;;;;;;;1.85;0.90;;;24.30;49.00;23.20;101149.00;;;;5047553;28;20059;-66
2022/06/29 06:29:21;;;;;;;2.75;0.73;;;24.20;48.90;23.20;101151.00;;;;5064788;28;20037;-66
2022/06/29 06:32:08;;;;;;;1.98;0.65;;;24.20;48.90;23.20;101145.00;;;;5065436;28;20040;-67
2022/06/29 06:34:54;;;;;;;2.70;0.98;;;24.20;48.90;23.20;101147.00;;;;5050854;28;20131;-66
2022/06/29 06:37:40;;;;;;;2.35;0.70;;;24.20;48.90;23.20;101145.00;;;;5061693;28;20032;-66
2022/06/29 06:43:30;;;;;;;3.60;1.08;;;24.20;48.90;23.20;101137.00;;;;5058957;28;20117;-66
2022/06/29 06:46:17;;;;;;;0.82;0.77;;;24.20;48.90;23.20;101137.00;;;;5057926;28;20063;-66
2022/06/29 06:49:03;;;;;;;2.37;1.10;;;24.30;49.00;23.20;101152.00;;;;5058332;28;20044;-66
2022/06/29 06:51:51;;;;;;;2.13;0.90;;;24.20;48.90;23.20;101140.00;;;;5063221;28;20703;-66
2022/06/29 06:54:37;;;;;;;0.80;0.80;;;24.30;49.00;23.20;101141.00;;;;5048607;28;20044;-66
2022/06/29 06:57:23;;;;;;;2.13;0.88;;;24.20;48.90;23.20;101134.00;;;;5066276;28;20040;-66
2022/06/29 07:00:09;;;;;;;2.00;1.10;;;24.20;49.00;23.20;101132.00;;;;5064591;28;20036;-66
2022/06/29 07:02:56;;;;;;;4.10;0.80;;;24.20;49.00;23.20;101130.00;;;;5045540;28;20324;-66
2022/06/29 07:05:42;;;;;;;1.83;1.00;;;24.20;48.90;23.20;101138.00;;;;5063959;28;20217;-66
2022/06/29 07:08:29;;;;;;;1.23;0.90;;;24.30;49.00;23.20;101130.00;;;;5062036;28;20032;-66
2022/06/29 07:11:15;;;;;;;1.25;0.90;;;24.20;48.90;23.20;101124.00;;;;5062670;28;20044;-66
2022/06/29 07:14:01;;;;;;;1.30;0.80;;;24.20;49.00;23.30;101134.00;;;;5065551;28;20044;-66
2022/06/29 07:16:47;;;;;;;2.55;1.00;;;24.20;48.90;23.20;101119.00;;;;5060056;28;20280;-66
2022/06/29 07:19:33;;;;;;;1.05;0.90;;;24.30;49.00;23.30;101114.00;;;;5063930;28;20045;-66
2022/06/29 07:22:19;;;;;;;2.20;0.93;;;24.20;49.60;23.30;101114.00;;;;5064304;28;20032;-66
2022/06/29 07:25:06;;;;;;;1.67;1.02;;;24.30;49.00;23.30;101111.00;;;;5062775;28;20469;-66
2022/06/29 07:27:52;;;;;;;0.82;0.50;;;24.30;49.00;23.30;101096.00;;;;5057385;28;20110;-66
2022/06/29 07:30:38;;;;;;;3.03;0.98;;;24.30;49.00;23.30;101101.00;;;;5061894;28;20028;-66
2022/06/29 07:33:24;;;;;;;1.52;0.88;;;24.20;48.80;23.30;101112.00;;;;5059739;28;20033;-66
2022/06/29 07:36:10;;;;;;;1.13;0.77;;;24.20;48.80;23.30;101105.00;;;;5061910;28;20032;-66
2022/06/29 07:38:56;;;;;;;3.08;0.80;;;24.40;48.90;23.30;101108.00;;;;5040927;28;20207;-66
2022/06/29 07:41:42;;;;;;;2.85;1.30;;;24.30;48.80;23.30;101100.00;;;;5062613;28;20047;-66
2022/06/29 07:44:28;;;;;;;1.23;0.70;;;24.30;49.00;23.30;101102.00;;;;5053898;28;20428;-66
2022/06/29 07:47:14;;;;;;;1.08;0.70;;;24.30;49.00;23.30;101108.00;;;;5060404;28;20044;-66
2022/06/29 07:50:01;;;;;;;1.52;0.95;;;24.30;48.90;23.30;101102.00;;;;5063059;28;20490;-66
2022/06/29 07:52:47;;;;;;;0.90;0.68;;;24.30;48.80;23.30;101101.00;;;;5065472;28;20496;-66
2022/06/29 07:55:33;;;;;;;1.15;0.73;;;24.30;49.00;23.30;101103.00;;;;5066357;28;20047;-66
2022/06/29 07:58:19;;;;;;;1.23;0.90;;;24.40;49.00;23.30;101099.00;;;;5070112;28;20119;-66
2022/06/29 08:01:05;;;;;;;1.25;1.00;;;24.30;48.90;23.30;101100.00;;;;5063121;28;20056;-66
2022/06/29 08:03:53;;;;;;;1.63;1.05;;;24.30;48.80;23.30;101092.00;;;;5049074;28;20056;-66
2022/06/29 08:06:39;;;;;;;1.13;0.90;;;24.30;48.90;23.30;101089.00;;;;5063059;28;20048;-67
2022/06/29 08:09:25;;;;;;;0.98;0.77;;;24.30;49.00;23.30;101082.00;;;;5050044;28;20044;-66
2022/06/29 08:12:11;;;;;;;2.47;0.80;;;24.30;49.00;23.30;101083.00;;;;5062420;28;20048;-66
2022/06/29 08:14:57;;;;;;;1.95;1.00;;;24.40;49.70;23.30;101086.00;;;;5047274;28;20044;-66
2022/06/29 08:17:44;;;;;;;2.13;0.90;;;24.30;49.00;23.30;101087.00;;;;5065260;28;20101;-66
2022/06/29 08:20:30;;;;;;;1.23;0.80;;;24.30;49.00;23.30;101082.00;;;;5060830;28;20048;-66
2022/06/29 08:23:16;;;;;;;0.63;0.60;;;24.30;49.00;23.30;101096.00;;;;5068180;28;20136;-66
2022/06/29 08:26:02;;;;;;;0.95;0.85;;;24.40;49.10;23.30;101086.00;;;;5062223;28;20098;-66
2022/06/29 08:28:49;;;;;;;1.90;1.00;;;24.40;49.00;23.30;101101.00;;;;5066725;28;20028;-66
2022/06/29 08:31:35;;;;;;;2.85;0.90;;;24.40;49.10;23.30;101089.00;;;;5064057;28;20310;-66
2022/06/29 08:34:27;;;;;;;1.30;0.80;;;24.30;49.00;23.30;101088.00;;;;5056835;28;20067;-66
2022/06/29 08:37:13;;;;;;;1.48;0.82;;;24.30;48.80;23.30;101078.00;;;;5066346;28;20453;-66
2022/06/29 08:39:59;;;;;;;1.23;0.90;;;24.30;49.00;23.30;101084.00;;;;5045133;28;20048;-66
2022/06/29 08:42:45;;;;;;;3.03;1.17;;;24.40;49.00;23.30;101100.00;;;;5067657;28;20405;-66
2022/06/29 08:45:32;;;;;;;1.45;0.88;;;24.30;48.80;23.30;101090.00;;;;5066728;28;20106;-66
2022/06/29 08:48:18;;;;;;;2.10;0.90;;;24.30;48.90;23.30;101095.00;;;;5063889;28;20398;-66
2022/06/29 08:51:04;;;;;;;2.45;0.98;;;24.40;48.90;23.30;101091.00;;;;5049500;28;20119;-66
2022/06/29 08:53:50;;;;;;;2.25;1.17;;;24.40;48.80;23.30;101103.00;;;;5021099;28;20048;-66
2022/06/29 08:56:36;;;;;;;1.00;0.80;;;24.30;48.70;23.30;101101.00;;;;5040112;28;20063;-66
2022/06/29 08:59:25;;;;;;;1.15;0.93;;;24.30;48.70;23.30;101099.00;;;;5051396;28;20037;-66
2022/06/29 09:02:11;;;;;;;2.60;1.08;;;24.40;48.90;23.30;101096.00;;;;5052129;28;20480;-66
2022/06/29 09:04:57;;;;;;;1.27;1.00;;;24.40;49.00;23.30;101094.00;;;;5053229;28;20471;-66
2022/06/29 09:07:43;;;;;;;1.52;0.80;;;24.40;48.90;23.30;101093.00;;;;5061575;28;20483;-66
2022/06/29 09:10:30;;;;;;;0.68;0.68;;;24.40;48.90;23.30;101091.00;;;;5062249;28;20044;-66
2022/06/29 09:13:23;;;;;;;1.80;0.93;;;24.30;49.00;23.30;101093.00;;;;5066568;28;20067;-66
2022/06/29 09:16:09;;;;;;;2.08;0.80;;;24.40;49.10;23.30;101093.00;;;;5057420;28;20570;-66
2022/06/29 09:18:57;;;;;;;0.80;0.80;;;24.20;48.90;23.30;101091.00;;;;5066193;28;20040;-66
2022/06/29 09:21:48;;;;;;;1.08;0.98;;;24.40;49.00;23.30;101086.00;;;;5048000;28;20101;-66
2022/06/29 09:24:34;;;;;;;1.15;1.00;;;24.40;49.10;23.30;101089.00;;;;5048535;28;20490;-66
2022/06/29 09:27:20;;;;;;;1.70;0.98;;;24.40;49.10;23.30;101095.00;;;;5042162;28;20075;-66
2022/06/29 09:30:07;;;;;;;1.13;1.00;;;24.40;49.10;23.30;101100.00;;;;5058774;28;20512;-66
2022/06/29 09:33:07;;;;;;;1.88;0.85;;;24.40;49.10;23.30;101085.00;;;;5050093;28;20040;-66
2022/06/29 09:36:13;;;;;;;1.33;0.95;;;24.50;49.10;23.30;101090.00;;;;5042146;28;20044;-66
2022/06/29 09:38:59;;;;;;;2.05;1.00;;;24.30;49.00;23.30;101099.00;;;;5048926;28;20044;-66
2022/06/29 09:41:45;;;;;;;1.23;1.05;;;24.40;49.10;23.30;101096.00;;;;5035739;28;20048;-66
2022/06/29 09:44:31;;;;;;;1.40;1.08;;;24.40;49.10;23.30;101090.00;;;;5059001;28;20386;-66
2022/06/29 09:47:19;;;;;;;1.88;0.93;;;24.40;49.10;23.30;101100.00;;;;5045142;28;20044;-69
2022/06/29 09:50:06;;;;;;;;;;;24.40;49.10;23.30;101083.00;;;;5044088;28;20047;-66
2022/06/29 09:52:52;;;;;;;2.10;0.98;;;24.40;49.10;23.30;101093.00;;;;5049057;28;19916;-66
2022/06/29 09:55:38;;;;;;;1.00;0.75;;;24.40;49.10;23.30;101090.00;;;;5011639;28;20041;-66
2022/06/29 09:58:35;;;;;;;1.63;1.08;;;24.40;49.10;23.30;101089.00;;;;5063099;28;20033;-66
2022/06/29 10:04:25;;;;;;;0.80;0.80;;;24.40;49.10;23.30;101088.00;;;;5051817;28;20081;-66
2022/06/29 10:07:11;;;;;;;0.90;0.90;;;24.40;49.10;23.30;101081.00;;;;5038866;28;20537;-66
2022/06/29 10:09:59;;;;;;;2.40;0.90;;;24.40;49.00;23.30;101079.00;;;;5052264;28;20036;-66
2022/06/29 10:16:49;;;;;;;0.70;0.70;;;24.40;49.10;23.30;101077.00;;;;5050675;28;20070;-66
2022/06/29 10:20:09;;;;;;;1.00;0.90;;;24.40;49.00;23.30;101084.00;;;;5050480;28;20624;-66
2022/06/29 10:22:55;;;;;;;1.30;1.15;;;24.30;49.00;23.30;101090.00;;;;5064807;28;20091;-66
2022/06/29 10:25:41;;;;;;;1.00;0.90;;;24.40;49.00;23.30;101084.00;;;;5048511;28;20047;-66
2022/06/29 10:28:27;;;;;;;1.05;0.80;;;24.40;49.10;23.30;101090.00;;;;5065158;28;20044;-66
2022/06/29 10:31:15;;;;;;;1.85;1.10;;;24.30;49.00;23.30;101086.00;;;;5063687;28;20043;-66
2022/06/29 10:34:11;;;;;;;;;;;24.40;49.10;23.30;101085.00;;;;5037318;28;20075;-66
2022/06/29 10:37:07;;;;;;;3.55;1.65;;;24.40;49.10;23.30;101086.00;;;;5047455;28;19919;-66
2022/06/29 10:39:54;;;;;;;1.50;1.40;;;24.40;49.20;23.30;101088.00;;;;5060731;28;20067;-66
2022/06/29 10:45:47;;;;;;;1.88;1.02;;;24.40;49.00;23.30;101078.00;;;;5061000;28;20411;-66
2022/06/29 10:48:33;;;;;;;1.50;1.02;;;24.40;49.10;23.30;101089.00;;;;5064822;28;20043;-66
2022/06/29 10:51:19;;;;;;;0.88;0.88;;;24.40;49.10;23.30;101089.00;;;;5061966;28;20037;-66
2022/06/29 10:54:23;;;;;;;1.25;1.15;;;24.40;49.10;23.30;101089.00;;;;5052027;28;20449;-66
2022/06/29 10:57:09;;;;;;;2.92;1.20;;;24.40;49.10;23.30;101075.00;;;;5049304;28;20051;-66
2022/06/29 10:59:55;;;;;;;1.20;1.00;;;24.40;49.10;23.30;101075.00;;;;5051287;28;20444;-66
2022/06/29 11:02:42;;;;;;;1.13;1.00;;;24.30;49.00;23.30;101070.00;;;;5061645;28;20041;-66
2022/06/29 11:05:28;;;;;;;1.60;1.30;;;24.40;49.10;23.30;101071.00;;;;5051136;28;20513;-66
2022/06/29 11:17:47;;;;;;;1.30;1.10;;;24.40;49.10;23.30;101057.00;;;;5050985;28;20036;-66
2022/06/29 11:20:34;;;;;;;1.35;1.00;;;24.30;49.00;23.30;101054.00;;;;5048377;28;20401;-66
2022/06/29 11:23:24;;;;;;;1.63;1.30;;;24.40;49.00;23.30;101049.00;;;;5059260;28;20045;-66
2022/06/29 11:26:11;;;;;;;1.98;1.30;;;24.40;49.00;23.30;101045.00;;;;5050410;28;20051;-66
2022/06/29 11:28:57;;;;;;;1.55;1.45;;;24.40;48.90;23.30;101044.00;;;;5053924;28;20434;-66
2022/06/29 11:31:59;;;;;;;1.55;1.25;;;24.40;49.00;23.30;101049.00;;;;5037330;28;20075;-67
2022/06/29 11:34:45;;;;;;;1.48;1.38;;;24.40;49.00;23.40;101046.00;;;;5059280;28;20036;-66
2022/06/29 11:37:31;;;;;;;2.35;1.17;;;24.40;49.10;23.40;101058.00;;;;5051042;28;20045;-66
2022/06/29 11:40:36;;;;;;;1.88;1.42;;;24.40;49.10;23.40;101049.00;;;;5056661;28;20044;-66
2022/06/29 11:43:23;;;;;;;1.80;1.25;;;24.40;49.10;23.40;101050.00;;;;5041891;28;20489;-66
2022/06/29 11:46:27;;;;;;;2.63;1.55;;;24.50;49.10;23.40;101049.00;;;;5068222;28;20347;-66
2022/06/29 11:49:36;;;;;;;1.75;1.10;;;24.40;49.10;23.40;101050.00;;;;5039982;28;20378;-66
2022/06/29 11:52:34;;;;;;;1.38;1.27;;;24.40;49.80;23.40;101047.00;;;;5071649;28;20111;-66
2022/06/29 11:55:42;;;;;;;;;;;24.50;49.10;23.30;101045.00;;;;5065831;28;20033;-66
2022/06/29 11:58:28;;;;;;;1.48;1.30;;;24.50;49.10;23.30;101043.00;;;;5058371;28;19912;-66
2022/06/29 12:01:17;;;;;;;1.58;1.40;;;24.50;49.10;23.30;101038.00;;;;5049126;28;20075;-65
2022/06/29 12:04:04;;;;;;;1.17;1.05;;;24.50;49.10;23.40;101033.00;;;;5068233;28;20048;-65
2022/06/29 12:06:50;;;;;;;1.80;1.50;;;24.50;49.10;23.40;101033.00;;;;5067096;28;20055;-65
2022/06/29 12:09:37;;;;;;;2.00;1.50;;;24.50;49.20;23.40;101020.00;;;;5039386;28;20039;-65
2022/06/29 12:12:23;;;;;;;1.20;1.10;;;24.40;49.30;23.40;101023.00;;;;5052604;28;20036;-65
2022/06/29 12:15:09;;;;;;;1.60;1.50;;;24.50;49.40;23.40;101013.00;;;;5053438;28;20037;-65
2022/06/29 12:17:55;;;;;;;1.60;1.50;;;24.50;48.80;23.40;101010.00;;;;5053813;28;20087;-66
2022/06/29 12:20:43;;;;;;;2.72;1.40;;;24.40;49.70;23.40;101009.00;;;;5047598;28;20036;-66
2022/06/29 12:23:29;;;;;;;2.05;1.60;;;24.50;49.10;23.40;101003.00;;;;5054036;28;20080;-66
2022/06/29 12:26:15;;;;;;;2.28;1.40;;;24.40;49.10;23.40;101005.00;;;;5046747;28;20537;-66
2022/06/29 12:29:01;;;;;;;1.77;1.38;;;24.50;49.10;23.40;100999.00;;;;5066879;28;20037;-66
2022/06/29 12:31:47;;;;;;;1.65;1.35;;;24.50;49.30;23.40;100996.00;;;;5064651;28;20458;-66
2022/06/29 12:34:33;;;;;;;2.13;1.48;;;24.50;49.20;23.40;101006.00;;;;5042235;28;20158;-65
2022/06/29 12:37:21;;;;;;;2.33;1.60;;;24.50;49.10;23.40;101003.00;;;;5061769;28;20048;-66
2022/06/29 12:40:08;;;;;;;2.22;1.80;;;24.50;49.10;23.40;101009.00;;;;5060888;28;20048;-65
2022/06/29 12:42:54;;;;;;;1.83;1.73;;;24.50;49.10;23.40;101009.00;;;;5067295;28;20044;-65